sensor_id;sensor_type;location;lat;lon;timestamp;pressure;altitude;pressure_sealevel;temperature;humidity
50172;BME280;37125;48.824;2.410;2023-05-19T00:00:31;101621.41;;;22.53;35.24
50172;BME280;37125;48.824;2.410;2023-05-19T00:01:02;101620.12;;;22.52;35.25
50172;BME280;37125;48.824;2.410;2023-05-19T00:01:34;101620.92;;;22.52;35.24
50172;BME280;37125;48.824;2.410;2023-05-19T00:02:05;101620.07;;;22.49;35.27
50172;BME280;37125;48.824;2.410;2023-05-19T00:02:36;101618.33;;;22.48;35.22
50172;BME280;37125;48.824;2.410;2023-05-19T00:03:07;101622.33;;;22.51;35.16
50172;BME280;37125;48.824;2.410;2023-05-19T00:03:48;101619.96;;;22.48;35.22
50172;BME280;37125;48.824;2.410;2023-05-19T00:04:19;101620.42;;;22.50;35.22
50172;BME280;37125;48.824;2.410;2023-05-19T00:04:50;101620.03;;;22.53;35.13
50172;BME280;37125;48.824;2.410;2023-05-19T00:05:22;101620.24;;;22.50;35.26
50172;BME280;37125;48.824;2.410;2023-05-19T00:05:53;101621.90;;;22.55;35.15
50172;BME280;37125;48.824;2.410;2023-05-19T00:06:25;101619.64;;;22.54;35.20
50172;BME280;37125;48.824;2.410;2023-05-19T00:06:58;101619.88;;;22.54;35.19
50172;BME280;37125;48.824;2.410;2023-05-19T00:07:30;101622.01;;;22.51;35.24
50172;BME280;37125;48.824;2.410;2023-05-19T00:08:01;101617.74;;;22.52;35.22
50172;BME280;37125;48.824;2.410;2023-05-19T00:08:33;101617.89;;;22.51;35.24
50172;BME280;37125;48.824;2.410;2023-05-19T00:09:05;101619.77;;;22.55;35.24
50172;BME280;37125;48.824;2.410;2023-05-19T00:09:36;101622.44;;;22.56;35.18
50172;BME280;37125;48.824;2.410;2023-05-19T00:10:09;101618.67;;;22.54;35.26
50172;BME280;37125;48.824;2.410;2023-05-19T00:10:40;101619.31;;;22.57;35.24
50172;BME280;37125;48.824;2.410;2023-05-19T00:11:11;101620.13;;;22.58;35.22
50172;BME280;37125;48.824;2.410;2023-05-19T00:11:43;101621.36;;;22.57;35.29
50172;BME280;37125;48.824;2.410;2023-05-19T00:12:14;101621.49;;;22.55;35.29
50172;BME280;37125;48.824;2.410;2023-05-19T00:12:45;101620.04;;;22.53;35.32
50172;BME280;37125;48.824;2.410;2023-05-19T00:13:16;101617.33;;;22.51;35.41
50172;BME280;37125;48.824;2.410;2023-05-19T00:13:47;101621.40;;;22.52;35.42
50172;BME280;37125;48.824;2.410;2023-05-19T00:14:18;101620.29;;;22.48;35.53
50172;BME280;37125;48.824;2.410;2023-05-19T00:14:49;101619.72;;;22.50;35.53
50172;BME280;37125;48.824;2.410;2023-05-19T00:15:21;101622.77;;;22.48;35.59
50172;BME280;37125;48.824;2.410;2023-05-19T00:15:52;101619.18;;;22.50;35.60
50172;BME280;37125;48.824;2.410;2023-05-19T00:16:25;101623.07;;;22.49;35.62
50172;BME280;37125;48.824;2.410;2023-05-19T00:16:56;101621.60;;;22.54;35.52
50172;BME280;37125;48.824;2.410;2023-05-19T00:17:27;101620.42;;;22.51;35.56
50172;BME280;37125;48.824;2.410;2023-05-19T00:17:58;101621.56;;;22.50;35.61
50172;BME280;37125;48.824;2.410;2023-05-19T00:18:28;101623.31;;;22.54;35.56
50172;BME280;37125;48.824;2.410;2023-05-19T00:19:01;101621.32;;;22.53;35.59
50172;BME280;37125;48.824;2.410;2023-05-19T00:19:31;101623.84;;;22.54;35.56
50172;BME280;37125;48.824;2.410;2023-05-19T00:20:03;101624.40;;;22.53;35.53
50172;BME280;37125;48.824;2.410;2023-05-19T00:20:33;101623.45;;;22.50;35.55
50172;BME280;37125;48.824;2.410;2023-05-19T00:21:04;101625.61;;;22.52;35.55
50172;BME280;37125;48.824;2.410;2023-05-19T00:21:35;101627.40;;;22.52;35.48
50172;BME280;37125;48.824;2.410;2023-05-19T00:22:06;101626.43;;;22.52;35.48
50172;BME280;37125;48.824;2.410;2023-05-19T00:22:36;101624.44;;;22.53;35.47
50172;BME280;37125;48.824;2.410;2023-05-19T00:23:07;101626.06;;;22.52;35.44
50172;BME280;37125;48.824;2.410;2023-05-19T00:23:38;101627.56;;;22.52;35.46
50172;BME280;37125;48.824;2.410;2023-05-19T00:24:09;101628.30;;;22.55;35.40
50172;BME280;37125;48.824;2.410;2023-05-19T00:24:39;101630.51;;;22.56;35.39
50172;BME280;37125;48.824;2.410;2023-05-19T00:25:10;101629.49;;;22.56;35.42
50172;BME280;37125;48.824;2.410;2023-05-19T00:25:40;101625.26;;;22.50;35.55
50172;BME280;37125;48.824;2.410;2023-05-19T00:26:11;101628.43;;;22.51;35.51
50172;BME280;37125;48.824;2.410;2023-05-19T00:26:42;101626.74;;;22.53;35.48
50172;BME280;37125;48.824;2.410;2023-05-19T00:27:12;101627.85;;;22.48;35.54
50172;BME280;37125;48.824;2.410;2023-05-19T00:27:43;101626.94;;;22.50;35.55
50172;BME280;37125;48.824;2.410;2023-05-19T00:28:13;101628.66;;;22.49;35.54
50172;BME280;37125;48.824;2.410;2023-05-19T00:28:44;101626.54;;;22.47;35.58
50172;BME280;37125;48.824;2.410;2023-05-19T00:29:14;101627.08;;;22.46;35.67
50172;BME280;37125;48.824;2.410;2023-05-19T00:29:45;101626.46;;;22.46;35.67
50172;BME280;37125;48.824;2.410;2023-05-19T00:30:16;101626.82;;;22.49;35.56
50172;BME280;37125;48.824;2.410;2023-05-19T00:30:46;101628.09;;;22.49;35.60
50172;BME280;37125;48.824;2.410;2023-05-19T00:31:17;101626.48;;;22.47;35.62
50172;BME280;37125;48.824;2.410;2023-05-19T00:31:48;101625.25;;;22.49;35.60
50172;BME280;37125;48.824;2.410;2023-05-19T00:32:18;101625.80;;;22.48;35.68
50172;BME280;37125;48.824;2.410;2023-05-19T00:32:49;101624.96;;;22.46;35.63
50172;BME280;37125;48.824;2.410;2023-05-19T00:33:20;101623.32;;;22.48;35.58
50172;BME280;37125;48.824;2.410;2023-05-19T00:33:50;101623.56;;;22.47;35.59
50172;BME280;37125;48.824;2.410;2023-05-19T00:34:21;101623.02;;;22.46;35.58
50172;BME280;37125;48.824;2.410;2023-05-19T00:34:52;101625.51;;;22.49;35.56
50172;BME280;37125;48.824;2.410;2023-05-19T00:35:23;101623.95;;;22.45;35.64
50172;BME280;37125;48.824;2.410;2023-05-19T00:35:53;101623.93;;;22.44;35.65
50172;BME280;37125;48.824;2.410;2023-05-19T00:36:24;101625.78;;;22.46;35.67
50172;BME280;37125;48.824;2.410;2023-05-19T00:36:55;101624.45;;;22.46;35.66
50172;BME280;37125;48.824;2.410;2023-05-19T00:37:25;101626.46;;;22.47;35.63
50172;BME280;37125;48.824;2.410;2023-05-19T00:37:56;101624.38;;;22.48;35.62
50172;BME280;37125;48.824;2.410;2023-05-19T00:38:26;101626.29;;;22.46;35.64
50172;BME280;37125;48.824;2.410;2023-05-19T00:38:57;101621.57;;;22.47;35.63
50172;BME280;37125;48.824;2.410;2023-05-19T00:39:27;101625.40;;;22.44;35.68
50172;BME280;37125;48.824;2.410;2023-05-19T00:39:58;101624.22;;;22.42;35.73
50172;BME280;37125;48.824;2.410;2023-05-19T00:40:30;101621.95;;;22.47;35.64
50172;BME280;37125;48.824;2.410;2023-05-19T00:41:04;101625.83;;;22.46;35.61
50172;BME280;37125;48.824;2.410;2023-05-19T00:41:34;101626.61;;;22.48;35.55
50172;BME280;37125;48.824;2.410;2023-05-19T00:42:06;101625.28;;;22.48;35.59
50172;BME280;37125;48.824;2.410;2023-05-19T00:42:37;101625.42;;;22.46;35.63
50172;BME280;37125;48.824;2.410;2023-05-19T00:43:08;101623.71;;;22.44;35.67
50172;BME280;37125;48.824;2.410;2023-05-19T00:43:38;101624.89;;;22.42;35.68
50172;BME280;37125;48.824;2.410;2023-05-19T00:44:09;101625.40;;;22.44;35.68
50172;BME280;37125;48.824;2.410;2023-05-19T00:44:40;101625.97;;;22.46;35.65
50172;BME280;37125;48.824;2.410;2023-05-19T00:45:11;101627.53;;;22.46;35.63
50172;BME280;37125;48.824;2.410;2023-05-19T00:45:42;101628.75;;;22.46;35.67
50172;BME280;37125;48.824;2.410;2023-05-19T00:46:12;101625.52;;;22.46;35.67
50172;BME280;37125;48.824;2.410;2023-05-19T00:46:43;101626.70;;;22.46;35.66
50172;BME280;37125;48.824;2.410;2023-05-19T00:47:13;101624.89;;;22.44;35.67
50172;BME280;37125;48.824;2.410;2023-05-19T00:47:44;101625.37;;;22.46;35.65
50172;BME280;37125;48.824;2.410;2023-05-19T00:48:15;101625.87;;;22.52;35.52
50172;BME280;37125;48.824;2.410;2023-05-19T00:48:46;101626.96;;;22.53;35.52
50172;BME280;37125;48.824;2.410;2023-05-19T00:49:16;101627.89;;;22.52;35.55
50172;BME280;37125;48.824;2.410;2023-05-19T00:49:47;101626.49;;;22.51;35.59
50172;BME280;37125;48.824;2.410;2023-05-19T00:50:18;101627.74;;;22.50;35.63
50172;BME280;37125;48.824;2.410;2023-05-19T00:50:49;101626.14;;;22.48;35.65
50172;BME280;37125;48.824;2.410;2023-05-19T00:51:21;101628.79;;;22.49;35.66
50172;BME280;37125;48.824;2.410;2023-05-19T00:51:53;101628.57;;;22.54;35.57
50172;BME280;37125;48.824;2.410;2023-05-19T00:52:25;101629.00;;;22.63;35.39
50172;BME280;37125;48.824;2.410;2023-05-19T00:52:56;101629.16;;;22.65;35.37
50172;BME280;37125;48.824;2.410;2023-05-19T00:53:27;101626.04;;;22.69;35.26
50172;BME280;37125;48.824;2.410;2023-05-19T00:53:58;101626.32;;;22.67;35.42
50172;BME280;37125;48.824;2.410;2023-05-19T00:54:30;101625.39;;;22.60;35.55
50172;BME280;37125;48.824;2.410;2023-05-19T00:55:00;101629.19;;;22.65;35.46
50172;BME280;37125;48.824;2.410;2023-05-19T00:55:32;101625.25;;;22.70;35.33
50172;BME280;37125;48.824;2.410;2023-05-19T00:56:05;101625.68;;;22.73;35.22
50172;BME280;37125;48.824;2.410;2023-05-19T00:56:36;101622.59;;;22.70;35.29
50172;BME280;37125;48.824;2.410;2023-05-19T00:57:07;101622.09;;;22.70;35.31
50172;BME280;37125;48.824;2.410;2023-05-19T00:57:38;101621.68;;;22.72;35.25
50172;BME280;37125;48.824;2.410;2023-05-19T00:58:11;101622.56;;;22.65;35.42
50172;BME280;37125;48.824;2.410;2023-05-19T00:58:42;101620.48;;;22.61;35.46
50172;BME280;37125;48.824;2.410;2023-05-19T00:59:13;101621.51;;;22.70;35.31
50172;BME280;37125;48.824;2.410;2023-05-19T00:59:44;101620.37;;;22.73;35.23
50172;BME280;37125;48.824;2.410;2023-05-19T01:00:14;101621.63;;;22.76;35.20
50172;BME280;37125;48.824;2.410;2023-05-19T01:00:45;101620.35;;;22.79;35.15
50172;BME280;37125;48.824;2.410;2023-05-19T01:01:16;101619.41;;;22.78;35.19
50172;BME280;37125;48.824;2.410;2023-05-19T01:01:47;101621.56;;;22.74;35.26
50172;BME280;37125;48.824;2.410;2023-05-19T01:02:18;101621.35;;;22.77;35.24
50172;BME280;37125;48.824;2.410;2023-05-19T01:02:49;101621.40;;;22.78;35.22
50172;BME280;37125;48.824;2.410;2023-05-19T01:03:19;101621.03;;;22.73;35.32
50172;BME280;37125;48.824;2.410;2023-05-19T01:03:50;101617.42;;;22.77;35.24
50172;BME280;37125;48.824;2.410;2023-05-19T01:04:21;101618.01;;;22.78;35.20
50172;BME280;37125;48.824;2.410;2023-05-19T01:04:52;101616.56;;;22.82;35.16
50172;BME280;37125;48.824;2.410;2023-05-19T01:05:23;101617.91;;;22.76;35.33
50172;BME280;37125;48.824;2.410;2023-05-19T01:05:53;101618.83;;;22.69;35.41
50172;BME280;37125;48.824;2.410;2023-05-19T01:06:24;101620.17;;;22.69;35.42
50172;BME280;37125;48.824;2.410;2023-05-19T01:06:55;101620.88;;;22.65;35.50
50172;BME280;37125;48.824;2.410;2023-05-19T01:07:26;101620.21;;;22.72;35.36
50172;BME280;37125;48.824;2.410;2023-05-19T01:07:57;101621.22;;;22.67;35.44
50172;BME280;37125;48.824;2.410;2023-05-19T01:08:29;101617.70;;;22.69;35.47
50172;BME280;37125;48.824;2.410;2023-05-19T01:09:01;101617.89;;;22.62;35.56
50172;BME280;37125;48.824;2.410;2023-05-19T01:09:31;101617.50;;;22.72;35.39
50172;BME280;37125;48.824;2.410;2023-05-19T01:10:03;101615.00;;;22.70;35.45
50172;BME280;37125;48.824;2.410;2023-05-19T01:10:34;101618.66;;;22.75;35.32
50172;BME280;37125;48.824;2.410;2023-05-19T01:11:05;101618.76;;;22.76;35.29
50172;BME280;37125;48.824;2.410;2023-05-19T01:11:36;101616.39;;;22.77;35.28
50172;BME280;37125;48.824;2.410;2023-05-19T01:12:07;101614.84;;;22.76;35.30
50172;BME280;37125;48.824;2.410;2023-05-19T01:12:39;101614.75;;;22.68;35.50
50172;BME280;37125;48.824;2.410;2023-05-19T01:13:10;101614.86;;;22.72;35.40
50172;BME280;37125;48.824;2.410;2023-05-19T01:13:40;101617.23;;;22.75;35.31
50172;BME280;37125;48.824;2.410;2023-05-19T01:14:11;101613.68;;;22.78;35.31
50172;BME280;37125;48.824;2.410;2023-05-19T01:14:42;101611.50;;;22.82;35.21
50172;BME280;37125;48.824;2.410;2023-05-19T01:15:13;101613.80;;;22.80;35.28
50172;BME280;37125;48.824;2.410;2023-05-19T01:15:59;101615.92;;;22.68;35.52
50172;BME280;37125;48.824;2.410;2023-05-19T01:16:35;101611.34;;;22.73;35.43
50172;BME280;37125;48.824;2.410;2023-05-19T01:17:13;101611.35;;;22.72;35.46
50172;BME280;37125;48.824;2.410;2023-05-19T01:17:55;101611.46;;;22.75;35.39
50172;BME280;37125;48.824;2.410;2023-05-19T01:18:36;101609.99;;;22.75;35.41
50172;BME280;37125;48.824;2.410;2023-05-19T01:19:16;101610.39;;;22.62;35.73
50172;BME280;37125;48.824;2.410;2023-05-19T01:19:56;101610.47;;;22.60;35.73
50172;BME280;37125;48.824;2.410;2023-05-19T01:20:34;101609.89;;;22.69;35.56
50172;BME280;37125;48.824;2.410;2023-05-19T01:21:25;101611.83;;;22.59;35.80
50172;BME280;37125;48.824;2.410;2023-05-19T01:22:13;101611.75;;;22.62;35.80
50172;BME280;37125;48.824;2.410;2023-05-19T01:23:07;101612.33;;;22.66;35.67
50172;BME280;37125;48.824;2.410;2023-05-19T01:23:50;101612.01;;;22.72;35.51
50172;BME280;37125;48.824;2.410;2023-05-19T01:24:33;101611.04;;;22.65;35.61
50172;BME280;37125;48.824;2.410;2023-05-19T01:25:36;101612.28;;;22.65;35.66
50172;BME280;37125;48.824;2.410;2023-05-19T01:26:29;101612.23;;;22.65;35.64
50172;BME280;37125;48.824;2.410;2023-05-19T01:27:20;101609.75;;;22.54;35.80
50172;BME280;37125;48.824;2.410;2023-05-19T01:28:15;101610.77;;;22.58;35.78
50172;BME280;37125;48.824;2.410;2023-05-19T01:29:37;101611.04;;;22.58;35.80
50172;BME280;37125;48.824;2.410;2023-05-19T01:30:22;101605.36;;;22.56;35.90
50172;BME280;37125;48.824;2.410;2023-05-19T01:30:57;101604.23;;;22.49;36.06
50172;BME280;37125;48.824;2.410;2023-05-19T01:31:29;101604.31;;;22.48;36.14
50172;BME280;37125;48.824;2.410;2023-05-19T01:32:03;101602.24;;;22.45;36.18
50172;BME280;37125;48.824;2.410;2023-05-19T01:32:34;101601.65;;;22.43;36.23
50172;BME280;37125;48.824;2.410;2023-05-19T01:33:09;101600.97;;;22.48;36.12
50172;BME280;37125;48.824;2.410;2023-05-19T01:33:42;101603.84;;;22.52;36.11
50172;BME280;37125;48.824;2.410;2023-05-19T01:34:15;101601.29;;;22.49;36.20
50172;BME280;37125;48.824;2.410;2023-05-19T01:34:48;101601.89;;;22.45;36.26
50172;BME280;37125;48.824;2.410;2023-05-19T01:35:22;101604.59;;;22.53;36.09
50172;BME280;37125;48.824;2.410;2023-05-19T01:35:54;101606.85;;;22.57;36.02
50172;BME280;37125;48.824;2.410;2023-05-19T01:36:26;101603.91;;;22.54;36.09
50172;BME280;37125;48.824;2.410;2023-05-19T01:36:59;101606.33;;;22.58;36.02
50172;BME280;37125;48.824;2.410;2023-05-19T01:37:30;101605.60;;;22.52;36.16
50172;BME280;37125;48.824;2.410;2023-05-19T01:38:03;101604.97;;;22.46;36.23
50172;BME280;37125;48.824;2.410;2023-05-19T01:38:37;101603.98;;;22.46;36.26
50172;BME280;37125;48.824;2.410;2023-05-19T01:39:08;101603.67;;;22.44;36.26
50172;BME280;37125;48.824;2.410;2023-05-19T01:39:39;101600.48;;;22.46;36.21
50172;BME280;37125;48.824;2.410;2023-05-19T01:40:10;101602.57;;;22.46;36.29
50172;BME280;37125;48.824;2.410;2023-05-19T01:40:42;101604.07;;;22.43;36.43
50172;BME280;37125;48.824;2.410;2023-05-19T01:41:14;101603.20;;;22.42;36.39
50172;BME280;37125;48.824;2.410;2023-05-19T01:41:45;101603.26;;;22.40;36.47
50172;BME280;37125;48.824;2.410;2023-05-19T01:42:16;101604.99;;;22.37;36.53
50172;BME280;37125;48.824;2.410;2023-05-19T01:42:50;101604.08;;;22.35;36.49
50172;BME280;37125;48.824;2.410;2023-05-19T01:43:24;101604.20;;;22.53;36.15
50172;BME280;37125;48.824;2.410;2023-05-19T01:43:55;101601.47;;;22.53;36.25
50172;BME280;37125;48.824;2.410;2023-05-19T01:44:27;101600.92;;;22.46;36.31
50172;BME280;37125;48.824;2.410;2023-05-19T01:44:58;101604.22;;;22.55;36.16
50172;BME280;37125;48.824;2.410;2023-05-19T01:45:31;101601.90;;;22.46;36.33
50172;BME280;37125;48.824;2.410;2023-05-19T01:46:02;101603.12;;;22.53;36.16
50172;BME280;37125;48.824;2.410;2023-05-19T01:46:33;101603.24;;;22.58;36.08
50172;BME280;37125;48.824;2.410;2023-05-19T01:47:05;101604.56;;;22.61;36.03
50172;BME280;37125;48.824;2.410;2023-05-19T01:47:39;101602.41;;;22.51;36.19
50172;BME280;37125;48.824;2.410;2023-05-19T01:48:12;101603.27;;;22.55;36.13
50172;BME280;37125;48.824;2.410;2023-05-19T01:48:44;101602.40;;;22.49;36.25
50172;BME280;37125;48.824;2.410;2023-05-19T01:49:14;101600.15;;;22.42;36.37
50172;BME280;37125;48.824;2.410;2023-05-19T01:49:45;101600.52;;;22.49;36.18
50172;BME280;37125;48.824;2.410;2023-05-19T01:50:16;101602.48;;;22.50;36.22
50172;BME280;37125;48.824;2.410;2023-05-19T01:50:47;101601.14;;;22.48;36.25
50172;BME280;37125;48.824;2.410;2023-05-19T01:51:17;101602.02;;;22.57;36.11
50172;BME280;37125;48.824;2.410;2023-05-19T01:51:48;101603.66;;;22.57;36.05
50172;BME280;37125;48.824;2.410;2023-05-19T01:52:19;101601.26;;;22.49;36.21
50172;BME280;37125;48.824;2.410;2023-05-19T01:52:50;101598.92;;;22.45;36.33
50172;BME280;37125;48.824;2.410;2023-05-19T01:53:21;101598.20;;;22.43;36.36
50172;BME280;37125;48.824;2.410;2023-05-19T01:53:51;101597.79;;;22.44;36.38
50172;BME280;37125;48.824;2.410;2023-05-19T01:54:22;101597.82;;;22.41;36.42
50172;BME280;37125;48.824;2.410;2023-05-19T01:54:53;101596.46;;;22.43;36.36
50172;BME280;37125;48.824;2.410;2023-05-19T01:55:24;101594.60;;;22.44;36.33
50172;BME280;37125;48.824;2.410;2023-05-19T01:55:56;101598.33;;;22.49;36.25
50172;BME280;37125;48.824;2.410;2023-05-19T01:56:33;101599.19;;;22.44;36.35
50172;BME280;37125;48.824;2.410;2023-05-19T01:57:18;101599.14;;;22.38;36.49
50172;BME280;37125;48.824;2.410;2023-05-19T01:58:04;101599.23;;;22.37;36.50
50172;BME280;37125;48.824;2.410;2023-05-19T01:58:43;101597.32;;;22.36;36.52
50172;BME280;37125;48.824;2.410;2023-05-19T01:59:24;101599.02;;;22.36;36.56
50172;BME280;37125;48.824;2.410;2023-05-19T02:00:02;101599.75;;;22.34;36.60
50172;BME280;37125;48.824;2.410;2023-05-19T02:00:45;101598.51;;;22.37;36.56
50172;BME280;37125;48.824;2.410;2023-05-19T02:01:28;101599.20;;;22.38;36.52
50172;BME280;37125;48.824;2.410;2023-05-19T02:02:04;101598.82;;;22.38;36.52
50172;BME280;37125;48.824;2.410;2023-05-19T02:02:46;101599.21;;;22.41;36.45
50172;BME280;37125;48.824;2.410;2023-05-19T02:03:33;101600.14;;;22.35;36.52
50172;BME280;37125;48.824;2.410;2023-05-19T02:04:16;101597.27;;;22.39;36.44
50172;BME280;37125;48.824;2.410;2023-05-19T02:04:54;101599.04;;;22.35;36.53
50172;BME280;37125;48.824;2.410;2023-05-19T02:05:33;101598.22;;;22.36;36.52
50172;BME280;37125;48.824;2.410;2023-05-19T02:06:18;101598.96;;;22.32;36.61
50172;BME280;37125;48.824;2.410;2023-05-19T02:06:58;101600.22;;;22.42;36.37
50172;BME280;37125;48.824;2.410;2023-05-19T02:07:37;101597.59;;;22.39;36.46
50172;BME280;37125;48.824;2.410;2023-05-19T02:08:15;101598.37;;;22.43;36.38
50172;BME280;37125;48.824;2.410;2023-05-19T02:08:56;101599.92;;;22.41;36.43
50172;BME280;37125;48.824;2.410;2023-05-19T02:09:38;101598.46;;;22.41;36.43
50172;BME280;37125;48.824;2.410;2023-05-19T02:10:13;101600.49;;;22.40;36.45
50172;BME280;37125;48.824;2.410;2023-05-19T02:10:51;101598.72;;;22.36;36.53
50172;BME280;37125;48.824;2.410;2023-05-19T02:11:28;101598.82;;;22.36;36.56
50172;BME280;37125;48.824;2.410;2023-05-19T02:12:08;101598.21;;;22.35;36.55
50172;BME280;37125;48.824;2.410;2023-05-19T02:12:40;101600.71;;;22.34;36.57
50172;BME280;37125;48.824;2.410;2023-05-19T02:13:13;101598.09;;;22.43;36.40
50172;BME280;37125;48.824;2.410;2023-05-19T02:13:49;101598.77;;;22.45;36.30
50172;BME280;37125;48.824;2.410;2023-05-19T02:14:29;101598.60;;;22.42;36.41
50172;BME280;37125;48.824;2.410;2023-05-19T02:15:05;101597.10;;;22.37;36.52
50172;BME280;37125;48.824;2.410;2023-05-19T02:15:40;101596.81;;;22.43;36.39
50172;BME280;37125;48.824;2.410;2023-05-19T02:16:12;101597.64;;;22.38;36.49
50172;BME280;37125;48.824;2.410;2023-05-19T02:16:46;101598.50;;;22.40;36.45
50172;BME280;37125;48.824;2.410;2023-05-19T02:17:19;101599.11;;;22.38;36.52
50172;BME280;37125;48.824;2.410;2023-05-19T02:17:52;101597.81;;;22.37;36.51
50172;BME280;37125;48.824;2.410;2023-05-19T02:18:25;101596.96;;;22.41;36.43
50172;BME280;37125;48.824;2.410;2023-05-19T02:18:56;101600.48;;;22.37;36.54
50172;BME280;37125;48.824;2.410;2023-05-19T02:19:30;101601.28;;;22.39;36.47
50172;BME280;37125;48.824;2.410;2023-05-19T02:20:02;101600.94;;;22.50;36.23
50172;BME280;37125;48.824;2.410;2023-05-19T02:20:32;101599.72;;;22.58;36.09
50172;BME280;37125;48.824;2.410;2023-05-19T02:21:03;101601.67;;;22.54;36.15
50172;BME280;37125;48.824;2.410;2023-05-19T02:21:34;101599.93;;;22.48;36.30
50172;BME280;37125;48.824;2.410;2023-05-19T02:22:05;101599.97;;;22.48;36.29
50172;BME280;37125;48.824;2.410;2023-05-19T02:22:36;101599.17;;;22.49;36.26
50172;BME280;37125;48.824;2.410;2023-05-19T02:23:06;101598.97;;;22.50;36.27
50172;BME280;37125;48.824;2.410;2023-05-19T02:23:38;101598.34;;;22.43;36.39
50172;BME280;37125;48.824;2.410;2023-05-19T02:24:08;101600.81;;;22.44;36.32
50172;BME280;37125;48.824;2.410;2023-05-19T02:24:39;101599.49;;;22.43;36.42
50172;BME280;37125;48.824;2.410;2023-05-19T02:25:10;101599.40;;;22.41;36.40
50172;BME280;37125;48.824;2.410;2023-05-19T02:25:40;101599.13;;;22.46;36.36
50172;BME280;37125;48.824;2.410;2023-05-19T02:26:11;101599.52;;;22.44;36.40
50172;BME280;37125;48.824;2.410;2023-05-19T02:26:42;101601.18;;;22.45;36.35
50172;BME280;37125;48.824;2.410;2023-05-19T02:27:12;101598.58;;;22.41;36.46
50172;BME280;37125;48.824;2.410;2023-05-19T02:27:43;101599.37;;;22.39;36.49
50172;BME280;37125;48.824;2.410;2023-05-19T02:28:14;101599.39;;;22.42;36.41
50172;BME280;37125;48.824;2.410;2023-05-19T02:28:44;101597.55;;;22.46;36.36
50172;BME280;37125;48.824;2.410;2023-05-19T02:29:15;101596.79;;;22.38;36.56
50172;BME280;37125;48.824;2.410;2023-05-19T02:29:46;101600.04;;;22.39;36.49
50172;BME280;37125;48.824;2.410;2023-05-19T02:30:16;101596.96;;;22.41;36.46
50172;BME280;37125;48.824;2.410;2023-05-19T02:30:47;101598.97;;;22.38;36.49
50172;BME280;37125;48.824;2.410;2023-05-19T02:31:17;101596.31;;;22.46;36.36
50172;BME280;37125;48.824;2.410;2023-05-19T02:31:48;101598.58;;;22.49;36.30
50172;BME280;37125;48.824;2.410;2023-05-19T02:32:19;101596.61;;;22.46;36.34
50172;BME280;37125;48.824;2.410;2023-05-19T02:32:50;101596.28;;;22.45;36.39
50172;BME280;37125;48.824;2.410;2023-05-19T02:33:21;101595.56;;;22.45;36.36
50172;BME280;37125;48.824;2.410;2023-05-19T02:33:51;101596.13;;;22.43;36.42
50172;BME280;37125;48.824;2.410;2023-05-19T02:34:22;101597.00;;;22.40;36.49
50172;BME280;37125;48.824;2.410;2023-05-19T02:34:52;101597.13;;;22.39;36.51
50172;BME280;37125;48.824;2.410;2023-05-19T02:35:23;101597.34;;;22.43;36.47
50172;BME280;37125;48.824;2.410;2023-05-19T02:35:53;101596.61;;;22.41;36.50
50172;BME280;37125;48.824;2.410;2023-05-19T02:36:24;101595.26;;;22.42;36.44
50172;BME280;37125;48.824;2.410;2023-05-19T02:36:54;101595.00;;;22.43;36.45
50172;BME280;37125;48.824;2.410;2023-05-19T02:37:25;101594.83;;;22.49;36.30
50172;BME280;37125;48.824;2.410;2023-05-19T02:37:56;101596.06;;;22.48;36.33
50172;BME280;37125;48.824;2.410;2023-05-19T02:38:26;101595.74;;;22.46;36.41
50172;BME280;37125;48.824;2.410;2023-05-19T02:38:57;101593.84;;;22.45;36.42
50172;BME280;37125;48.824;2.410;2023-05-19T02:39:27;101592.00;;;22.42;36.53
50172;BME280;37125;48.824;2.410;2023-05-19T02:39:58;101592.54;;;22.39;36.56
50172;BME280;37125;48.824;2.410;2023-05-19T02:40:29;101593.91;;;22.46;36.40
50172;BME280;37125;48.824;2.410;2023-05-19T02:40:59;101592.96;;;22.52;36.32
50172;BME280;37125;48.824;2.410;2023-05-19T02:41:30;101592.77;;;22.41;36.55
50172;BME280;37125;48.824;2.410;2023-05-19T02:42:00;101589.99;;;22.42;36.50
50172;BME280;37125;48.824;2.410;2023-05-19T02:42:31;101591.55;;;22.48;36.37
50172;BME280;37125;48.824;2.410;2023-05-19T02:43:01;101590.50;;;22.51;36.33
50172;BME280;37125;48.824;2.410;2023-05-19T02:43:32;101591.99;;;22.47;36.43
50172;BME280;37125;48.824;2.410;2023-05-19T02:44:03;101590.34;;;22.49;36.38
50172;BME280;37125;48.824;2.410;2023-05-19T02:44:34;101591.18;;;22.52;36.32
50172;BME280;37125;48.824;2.410;2023-05-19T02:45:05;101589.87;;;22.51;36.35
50172;BME280;37125;48.824;2.410;2023-05-19T02:45:36;101586.82;;;22.45;36.49
50172;BME280;37125;48.824;2.410;2023-05-19T02:46:07;101587.68;;;22.38;36.59
50172;BME280;37125;48.824;2.410;2023-05-19T02:46:38;101589.06;;;22.40;36.59
50172;BME280;37125;48.824;2.410;2023-05-19T02:47:08;101589.30;;;22.41;36.54
50172;BME280;37125;48.824;2.410;2023-05-19T02:47:39;101587.45;;;22.41;36.56
50172;BME280;37125;48.824;2.410;2023-05-19T02:48:10;101588.39;;;22.46;36.48
50172;BME280;37125;48.824;2.410;2023-05-19T02:48:40;101589.52;;;22.39;36.68
50172;BME280;37125;48.824;2.410;2023-05-19T02:49:11;101590.39;;;22.38;36.68
50172;BME280;37125;48.824;2.410;2023-05-19T02:49:42;101589.61;;;22.35;36.78
50172;BME280;37125;48.824;2.410;2023-05-19T02:50:12;101589.48;;;22.37;36.68
50172;BME280;37125;48.824;2.410;2023-05-19T02:50:43;101592.68;;;22.36;36.78
50172;BME280;37125;48.824;2.410;2023-05-19T02:51:13;101589.59;;;22.37;36.68
50172;BME280;37125;48.824;2.410;2023-05-19T02:51:44;101591.76;;;22.41;36.65
50172;BME280;37125;48.824;2.410;2023-05-19T02:52:14;101592.91;;;22.37;36.68
50172;BME280;37125;48.824;2.410;2023-05-19T02:52:45;101591.66;;;22.43;36.57